createdAt,value
2023-03-25T00:00:13.488Z,94.90
2023-03-25T00:02:59.165Z,94.42
2023-03-25T00:05:44.080Z,94.30
2023-03-25T00:08:29.193Z,93.55
2023-03-25T00:11:14.447Z,93.45
2023-03-25T00:13:59.509Z,93.23
2023-03-25T00:16:44.981Z,92.79
2023-03-25T00:19:30.187Z,92.77
2023-03-25T00:22:15.314Z,92.67
2023-03-25T00:25:00.221Z,92.33
2023-03-25T00:27:45.825Z,92.01
2023-03-25T00:30:30.940Z,92.39
2023-03-25T00:33:16.426Z,92.85
2023-03-25T00:36:02.886Z,93.26
2023-03-25T00:38:49.276Z,94.46
2023-03-25T00:41:34.801Z,94.87
2023-03-25T00:44:20.003Z,94.85
2023-03-25T00:47:05.050Z,95.28
2023-03-25T00:49:50.728Z,96.07
2023-03-25T00:52:36.231Z,96.37
2023-03-25T00:55:21.877Z,96.75
2023-03-25T00:58:07.148Z,96.73
2023-03-25T01:00:52.084Z,96.80
2023-03-25T01:03:40.204Z,97.12
2023-03-25T01:06:32.814Z,97.52
2023-03-25T01:09:18.924Z,97.65
2023-03-25T01:12:04.604Z,98.05
2023-03-25T01:14:50.021Z,98.16
2023-03-25T01:17:35.138Z,98.56
2023-03-25T01:20:20.505Z,98.41
2023-03-25T01:23:05.826Z,99.12
2023-03-25T01:25:50.998Z,99.45
2023-03-25T01:28:36.356Z,99.41
2023-03-25T01:31:21.843Z,99.19
2023-03-25T01:34:07.687Z,98.93
2023-03-25T01:36:53.150Z,99.17
2023-03-25T01:39:38.339Z,98.83
2023-03-25T01:42:23.301Z,98.38
2023-03-25T01:45:16.238Z,97.79
2023-03-25T01:48:07.915Z,97.55
2023-03-25T01:50:57.774Z,97.54
2023-03-25T01:53:43.335Z,96.59
2023-03-25T01:56:34.744Z,96.02
2023-03-25T01:59:23.313Z,95.73
2023-03-25T02:02:11.444Z,95.18
2023-03-25T02:05:04.574Z,94.56
2023-03-25T02:07:50.328Z,94.34
2023-03-25T02:10:37.119Z,93.96
2023-03-25T02:13:22.282Z,93.75
2023-03-25T02:16:38.170Z,93.31
2023-03-25T02:20:00.939Z,92.89
2023-03-25T02:23:14.320Z,92.63
2023-03-25T02:26:14.654Z,92.86
2023-03-25T02:29:02.940Z,92.98
2023-03-25T02:32:12.761Z,93.08
2023-03-25T02:35:19.627Z,92.99
2023-03-25T02:38:17.981Z,92.73
2023-03-25T02:41:25.264Z,93.07
2023-03-25T02:44:21.954Z,93.20
2023-03-25T02:47:11.910Z,93.23
2023-03-25T02:50:02.622Z,93.66
2023-03-25T02:52:52.108Z,94.11
2023-03-25T02:55:38.322Z,96.14
2023-03-25T02:58:25.065Z,98.64
2023-03-25T03:01:10.235Z,100.00
2023-03-25T03:03:56.747Z,100.00
2023-03-25T03:06:43.612Z,100.00
2023-03-25T03:09:39.845Z,100.00
2023-03-25T03:12:45.489Z,100.00
2023-03-25T03:16:04.798Z,100.00
2023-03-25T03:19:12.024Z,100.00
2023-03-25T03:22:31.043Z,100.00
2023-03-25T03:25:32.951Z,100.00
2023-03-25T03:28:26.824Z,100.00
2023-03-25T03:31:47.717Z,100.00
2023-03-25T03:34:33.860Z,100.00
2023-03-25T03:37:26.691Z,100.00
2023-03-25T03:40:18.738Z,100.00
2023-03-25T03:43:24.403Z,100.00
2023-03-25T03:46:39.080Z,100.00
2023-03-25T03:49:36.396Z,100.00
2023-03-25T03:52:41.055Z,100.00
2023-03-25T03:55:39.303Z,100.00
2023-03-25T03:58:29.759Z,100.00
2023-03-25T04:01:34.102Z,100.00
2023-03-25T04:04:22.798Z,100.00
2023-03-25T04:07:15.632Z,100.00
2023-03-25T04:10:21.240Z,100.00
2023-03-25T04:13:11.284Z,100.00
2023-03-25T04:15:59.016Z,100.00
2023-03-25T04:18:44.220Z,100.00
2023-03-25T04:21:29.573Z,100.00
2023-03-25T04:24:15.571Z,100.00
2023-03-25T04:27:01.719Z,100.00
2023-03-25T04:29:46.678Z,100.00
2023-03-25T04:32:32.179Z,99.91
2023-03-25T04:35:19.121Z,99.08
2023-03-25T04:38:04.495Z,98.51
2023-03-25T04:40:49.699Z,97.54
2023-03-25T04:43:34.882Z,96.95
2023-03-25T04:46:20.550Z,96.95
2023-03-25T04:49:06.030Z,96.79
2023-03-25T04:51:54.110Z,96.42
2023-03-25T04:54:39.720Z,96.15
2023-03-25T04:57:24.967Z,95.23
2023-03-25T05:00:10.506Z,95.06
2023-03-25T05:02:56.420Z,94.67
2023-03-25T05:05:41.934Z,94.84
2023-03-25T05:08:27.198Z,94.40
2023-03-25T05:11:12.552Z,94.18
2023-03-25T05:13:57.372Z,94.74
2023-03-25T05:16:43.565Z,94.52
2023-03-25T05:19:28.675Z,94.56
2023-03-25T05:22:13.900Z,94.06
2023-03-25T05:24:59.363Z,95.01
2023-03-25T05:27:44.812Z,95.58
2023-03-25T05:30:30.119Z,96.06
2023-03-25T05:33:17.362Z,96.62
2023-03-25T05:36:05.925Z,96.84
2023-03-25T05:38:54.924Z,97.22
2023-03-25T05:41:40.083Z,97.60
2023-03-25T05:44:25.460Z,97.40
2023-03-25T05:47:11.000Z,98.25
2023-03-25T05:49:56.334Z,98.12
2023-03-25T05:52:41.888Z,98.17
2023-03-25T05:55:28.023Z,98.34
2023-03-25T05:58:13.002Z,98.92
2023-03-25T06:00:59.028Z,99.37
2023-03-25T06:03:44.673Z,99.75
2023-03-25T06:06:31.610Z,99.77
2023-03-25T06:09:16.547Z,100.00
2023-03-25T06:12:03.566Z,99.33
2023-03-25T06:14:49.566Z,98.71
2023-03-25T06:17:34.762Z,98.45
2023-03-25T06:20:20.034Z,97.91
2023-03-25T06:23:05.123Z,97.62
2023-03-25T06:25:51.256Z,96.93
2023-03-25T06:28:36.917Z,97.01
2023-03-25T06:31:24.490Z,96.54
2023-03-25T06:34:09.830Z,96.57
2023-03-25T06:36:55.037Z,96.38
2023-03-25T06:39:40.184Z,96.74
2023-03-25T06:42:27.116Z,97.42
2023-03-25T06:45:12.768Z,97.71
2023-03-25T06:47:57.769Z,98.21
2023-03-25T06:50:43.812Z,98.46
2023-03-25T06:53:29.164Z,98.21
2023-03-25T06:56:14.722Z,98.16
2023-03-25T06:59:00.126Z,98.67
2023-03-25T07:01:45.435Z,98.87
2023-03-25T07:04:30.730Z,98.99
2023-03-25T07:07:15.671Z,100.00
2023-03-25T07:10:00.603Z,100.00
2023-03-25T07:12:46.157Z,100.00
2023-03-25T07:15:31.379Z,100.00
2023-03-25T07:18:16.799Z,100.00
2023-03-25T07:21:02.175Z,100.00
2023-03-25T07:23:47.458Z,100.00
2023-03-25T07:26:32.816Z,100.00
2023-03-25T07:29:19.937Z,100.00
2023-03-25T07:32:06.210Z,100.00
2023-03-25T07:34:51.626Z,100.00
2023-03-25T07:37:36.985Z,100.00
2023-03-25T07:40:22.800Z,100.00
2023-03-25T07:43:07.851Z,100.00
2023-03-25T07:45:53.728Z,100.00
2023-03-25T07:48:39.235Z,100.00
2023-03-25T07:51:24.673Z,100.00
2023-03-25T07:54:10.348Z,100.00
2023-03-25T07:56:55.307Z,100.00
2023-03-25T07:59:40.498Z,100.00
2023-03-25T08:02:25.344Z,100.00
2023-03-25T08:05:10.665Z,100.00
2023-03-25T08:07:56.024Z,100.00
2023-03-25T08:10:45.691Z,100.00
2023-03-25T08:13:31.874Z,100.00
2023-03-25T08:16:17.200Z,100.00
2023-03-25T08:19:03.318Z,100.00
2023-03-25T08:21:49.043Z,98.50
2023-03-25T08:24:34.380Z,96.56
2023-03-25T08:27:20.054Z,94.68
2023-03-25T08:30:07.639Z,94.36
2023-03-25T08:32:54.426Z,93.83
2023-03-25T08:35:41.176Z,92.21
2023-03-25T08:38:26.684Z,91.51
2023-03-25T08:41:12.885Z,91.21
2023-03-25T08:43:59.033Z,90.90
2023-03-25T08:46:44.136Z,90.85
2023-03-25T08:49:30.060Z,90.48
2023-03-25T08:52:16.174Z,90.40
2023-03-25T08:55:01.344Z,90.32
2023-03-25T08:57:46.717Z,89.22
2023-03-25T09:00:32.052Z,88.57
2023-03-25T09:03:18.194Z,88.35
2023-03-25T09:06:05.132Z,87.40
2023-03-25T09:08:50.576Z,86.49
2023-03-25T09:11:37.219Z,86.64
2023-03-25T09:14:22.561Z,84.93
2023-03-25T09:17:07.531Z,84.39
2023-03-25T09:19:54.230Z,82.75
2023-03-25T09:22:40.766Z,82.63
2023-03-25T09:25:25.709Z,82.82
2023-03-25T09:28:11.072Z,81.86
2023-03-25T09:30:56.482Z,82.04
2023-03-25T09:33:41.799Z,82.48
2023-03-25T09:36:26.955Z,82.38
2023-03-25T09:39:12.314Z,82.21
2023-03-25T09:42:33.795Z,82.22
2023-03-25T09:45:36.395Z,80.96
2023-03-25T09:48:32.140Z,80.63
2023-03-25T09:51:28.143Z,81.33
2023-03-25T09:54:31.550Z,81.18
2023-03-25T09:57:21.993Z,81.73
2023-03-25T10:00:15.194Z,81.88
2023-03-25T10:03:15.011Z,82.51
2023-03-25T10:06:18.297Z,83.37
2023-03-25T10:09:18.963Z,83.43
2023-03-25T10:12:22.818Z,84.35
2023-03-25T10:15:17.329Z,83.92
2023-03-25T10:18:48.023Z,83.73
2023-03-25T10:22:02.757Z,83.08
2023-03-25T10:25:00.971Z,82.91
2023-03-25T10:27:51.293Z,82.26
2023-03-25T10:30:44.037Z,82.74
2023-03-25T10:33:43.455Z,83.12
2023-03-25T10:36:44.160Z,83.34
2023-03-25T10:39:31.931Z,83.81
2023-03-25T10:42:29.085Z,84.16
2023-03-25T10:45:16.214Z,84.86
2023-03-25T10:48:36.316Z,84.92
2023-03-25T10:51:30.359Z,85.71
2023-03-25T10:54:17.991Z,85.46
2023-03-25T10:57:07.154Z,85.10
2023-03-25T11:00:22.154Z,83.45
2023-03-25T11:03:17.417Z,84.12
2023-03-25T11:06:21.449Z,83.07
2023-03-25T11:09:31.083Z,83.69
2023-03-25T11:12:20.950Z,86.69
2023-03-25T11:15:26.079Z,90.48
2023-03-25T11:18:20.170Z,91.54
2023-03-25T11:21:10.885Z,91.08
2023-03-25T11:23:59.817Z,88.62
2023-03-25T11:26:48.676Z,88.15
2023-03-25T11:29:36.654Z,87.28
2023-03-25T11:32:35.542Z,87.05
2023-03-25T11:35:27.588Z,85.19
2023-03-25T11:38:16.436Z,84.35
2023-03-25T11:41:01.968Z,83.24
2023-03-25T11:43:50.702Z,82.40
2023-03-25T11:46:42.816Z,83.23
2023-03-25T11:49:30.338Z,83.61
2023-03-25T11:52:23.803Z,83.91
2023-03-25T11:55:18.830Z,83.42
2023-03-25T11:58:04.225Z,83.77
2023-03-25T12:01:01.180Z,83.88
2023-03-25T12:03:46.934Z,84.84
2023-03-25T12:06:32.201Z,85.72
2023-03-25T12:09:17.561Z,85.64
2023-03-25T12:12:24.826Z,85.48
2023-03-25T12:15:15.806Z,85.66
2023-03-25T12:18:35.049Z,85.49
2023-03-25T12:21:38.740Z,84.16
2023-03-25T12:24:32.985Z,83.73
2023-03-25T12:27:32.951Z,82.97
2023-03-25T12:30:43.308Z,83.26
2023-03-25T12:33:28.520Z,83.39
2023-03-25T12:36:54.537Z,84.46
2023-03-25T12:40:04.090Z,84.58
2023-03-25T12:43:12.016Z,84.67
2023-03-25T12:46:08.676Z,84.11
2023-03-25T12:49:24.900Z,83.55
2023-03-25T12:52:55.082Z,83.12
2023-03-25T12:56:01.706Z,84.92
2023-03-25T12:58:55.267Z,89.51
2023-03-25T13:02:02.327Z,93.14
2023-03-25T13:04:47.632Z,96.79
2023-03-25T13:07:58.129Z,99.67
2023-03-25T13:10:43.826Z,100.00
2023-03-25T13:13:31.499Z,100.00
2023-03-25T13:16:25.035Z,100.00
2023-03-25T13:19:33.667Z,100.00
2023-03-25T13:22:29.249Z,100.00
2023-03-25T13:25:26.771Z,100.00
2023-03-25T13:28:19.737Z,100.00
2023-03-25T13:31:07.698Z,100.00
2023-03-25T13:34:03.546Z,100.00
2023-03-25T13:37:00.430Z,100.00
2023-03-25T13:40:12.793Z,100.00
2023-03-25T13:43:05.238Z,100.00
2023-03-25T13:46:11.023Z,100.00
2023-03-25T13:49:25.667Z,100.00
2023-03-25T13:52:14.445Z,100.00
2023-03-25T13:55:16.864Z,100.00
2023-03-25T13:58:14.170Z,100.00
2023-03-25T14:01:27.665Z,100.00
2023-03-25T14:04:29.405Z,100.00
2023-03-25T14:07:52.282Z,100.00
2023-03-25T14:11:11.783Z,100.00
2023-03-25T14:14:06.134Z,100.00
2023-03-25T14:16:58.677Z,100.00
2023-03-25T14:19:52.078Z,100.00
2023-03-25T14:22:44.036Z,100.00
2023-03-25T14:25:40.288Z,100.00
2023-03-25T14:28:44.002Z,100.00
2023-03-25T14:31:37.261Z,100.00
2023-03-25T14:34:23.853Z,100.00
2023-03-25T14:37:23.677Z,100.00
2023-03-25T14:40:50.755Z,100.00
2023-03-25T14:43:51.456Z,100.00
2023-03-25T14:46:40.036Z,100.00
2023-03-25T14:49:54.948Z,100.00
2023-03-25T14:52:44.280Z,100.00
2023-03-25T14:55:49.598Z,100.00
2023-03-25T14:58:38.584Z,100.00
2023-03-25T15:01:33.007Z,100.00
2023-03-25T15:04:36.873Z,100.00
2023-03-25T15:07:38.208Z,100.00
2023-03-25T15:10:30.510Z,100.00
2023-03-25T15:13:28.249Z,100.00
2023-03-25T15:16:18.647Z,100.00
2023-03-25T15:19:15.416Z,100.00
2023-03-25T15:22:19.972Z,100.00
2023-03-25T15:25:16.595Z,100.00
2023-03-25T15:28:20.034Z,100.00
2023-03-25T15:31:22.673Z,100.00
2023-03-25T15:34:45.549Z,100.00
2023-03-25T15:37:54.945Z,100.00
2023-03-25T15:41:12.985Z,100.00
2023-03-25T15:44:04.032Z,100.00
2023-03-25T15:46:48.995Z,100.00
2023-03-25T15:50:00.537Z,100.00
2023-03-25T15:53:07.582Z,100.00
2023-03-25T15:55:58.243Z,100.00
2023-03-25T15:58:52.665Z,100.00
2023-03-25T16:01:42.148Z,100.00
2023-03-25T16:04:44.726Z,100.00
2023-03-25T16:07:30.060Z,100.00
2023-03-25T16:10:19.747Z,100.00
2023-03-25T16:13:13.699Z,100.00
2023-03-25T16:15:59.112Z,100.00
2023-03-25T16:18:46.550Z,100.00
2023-03-25T16:21:32.523Z,100.00
2023-03-25T16:24:20.367Z,100.00
2023-03-25T16:27:19.160Z,100.00
2023-03-25T16:30:40.118Z,100.00
2023-03-25T16:33:28.491Z,100.00
2023-03-25T16:36:17.015Z,100.00
2023-03-25T16:39:02.371Z,100.00
2023-03-25T16:41:49.884Z,100.00
2023-03-25T16:44:35.416Z,100.00
2023-03-25T16:47:22.102Z,100.00
2023-03-25T16:50:14.501Z,100.00
2023-03-25T16:53:01.817Z,100.00
2023-03-25T16:55:49.346Z,100.00
2023-03-25T16:58:36.751Z,100.00
2023-03-25T17:01:23.029Z,100.00
2023-03-25T17:04:07.998Z,100.00
2023-03-25T17:07:05.528Z,100.00
2023-03-25T17:09:52.673Z,100.00
2023-03-25T17:12:42.863Z,100.00
2023-03-25T17:15:28.644Z,100.00
2023-03-25T17:18:17.719Z,100.00
2023-03-25T17:21:03.101Z,100.00
2023-03-25T17:23:48.148Z,100.00
2023-03-25T17:26:52.923Z,100.00
2023-03-25T17:29:53.477Z,100.00
2023-03-25T17:32:44.010Z,100.00
2023-03-25T17:35:31.434Z,100.00
2023-03-25T17:38:34.570Z,100.00
2023-03-25T17:41:20.894Z,100.00
2023-03-25T17:44:07.553Z,100.00
2023-03-25T17:46:52.741Z,100.00
2023-03-25T17:49:38.133Z,100.00
2023-03-25T17:52:23.779Z,100.00
2023-03-25T17:55:09.465Z,100.00
2023-03-25T17:57:55.005Z,100.00
2023-03-25T18:00:42.563Z,100.00
2023-03-25T18:03:29.763Z,100.00
2023-03-25T18:06:15.158Z,100.00
2023-03-25T18:09:00.617Z,100.00
2023-03-25T18:11:49.157Z,100.00
2023-03-25T18:14:34.464Z,100.00
2023-03-25T18:17:19.858Z,100.00
2023-03-25T18:20:18.227Z,100.00
2023-03-25T18:23:03.394Z,100.00
2023-03-25T18:25:49.245Z,100.00
2023-03-25T18:28:34.600Z,100.00
2023-03-25T18:31:19.948Z,100.00
2023-03-25T18:34:05.039Z,100.00
2023-03-25T18:36:50.392Z,100.00
2023-03-25T18:39:35.845Z,100.00
2023-03-25T18:42:20.912Z,100.00
2023-03-25T18:45:06.833Z,100.00
2023-03-25T18:47:52.751Z,100.00
2023-03-25T18:50:41.843Z,100.00
2023-03-25T18:53:28.938Z,100.00
2023-03-25T18:56:14.121Z,100.00
2023-03-25T18:59:00.109Z,100.00
2023-03-25T19:01:45.621Z,100.00
2023-03-25T19:05:00.770Z,100.00
2023-03-25T19:07:47.337Z,100.00
2023-03-25T19:10:34.284Z,100.00
2023-03-25T19:13:20.613Z,100.00
2023-03-25T19:16:06.425Z,100.00
2023-03-25T19:18:51.812Z,100.00
2023-03-25T19:21:36.868Z,100.00
2023-03-25T19:24:22.303Z,100.00
2023-03-25T19:27:07.848Z,100.00
2023-03-25T19:29:53.155Z,100.00
2023-03-25T19:32:38.919Z,100.00
2023-03-25T19:35:24.925Z,100.00
2023-03-25T19:38:10.232Z,100.00
2023-03-25T19:41:07.915Z,100.00
2023-03-25T19:43:53.292Z,100.00
2023-03-25T19:46:38.576Z,100.00
2023-03-25T19:49:38.757Z,100.00
2023-03-25T19:52:25.882Z,100.00
2023-03-25T19:55:11.401Z,100.00
2023-03-25T19:57:56.368Z,100.00
2023-03-25T20:00:41.542Z,100.00
2023-03-25T20:03:26.736Z,100.00
2023-03-25T20:06:11.960Z,100.00
2023-03-25T20:08:57.748Z,100.00
2023-03-25T20:11:43.000Z,100.00
2023-03-25T20:14:28.485Z,100.00
2023-03-25T20:17:13.646Z,100.00
2023-03-25T20:19:58.643Z,100.00
2023-03-25T20:22:44.689Z,100.00
2023-03-25T20:25:30.153Z,100.00
2023-03-25T20:28:15.596Z,100.00
2023-03-25T20:31:00.529Z,100.00
2023-03-25T20:33:46.997Z,100.00
2023-03-25T20:36:32.244Z,100.00
2023-03-25T20:39:17.680Z,100.00
2023-03-25T20:42:03.136Z,100.00
2023-03-25T20:44:48.336Z,100.00
2023-03-25T20:47:33.491Z,100.00
2023-03-25T20:50:18.671Z,100.00
2023-03-25T20:53:04.418Z,100.00
2023-03-25T20:55:50.167Z,100.00
2023-03-25T20:58:35.813Z,100.00
2023-03-25T21:01:21.326Z,100.00
2023-03-25T21:04:07.471Z,100.00
2023-03-25T21:06:52.954Z,100.00
2023-03-25T21:09:38.282Z,100.00
2023-03-25T21:12:32.901Z,100.00
2023-03-25T21:15:27.141Z,100.00
2023-03-25T21:18:12.439Z,100.00
2023-03-25T21:21:00.226Z,100.00
2023-03-25T21:23:45.910Z,100.00
2023-03-25T21:26:32.508Z,100.00
2023-03-25T21:29:17.600Z,100.00
2023-03-25T21:32:02.822Z,100.00
2023-03-25T21:34:48.330Z,100.00
2023-03-25T21:37:34.443Z,100.00
2023-03-25T21:40:19.783Z,100.00
2023-03-25T21:43:04.931Z,100.00
2023-03-25T21:45:51.165Z,100.00
2023-03-25T21:48:37.666Z,100.00
2023-03-25T21:51:22.762Z,100.00
2023-03-25T21:54:08.578Z,100.00
2023-03-25T21:56:53.706Z,100.00
2023-03-25T21:59:38.981Z,100.00
2023-03-25T22:02:24.138Z,100.00
2023-03-25T22:05:13.408Z,100.00
2023-03-25T22:07:58.551Z,100.00
2023-03-25T22:10:44.099Z,100.00
2023-03-25T22:13:29.658Z,100.00
2023-03-25T22:16:17.032Z,100.00
2023-03-25T22:19:02.416Z,100.00
2023-03-25T22:21:47.698Z,100.00
2023-03-25T22:24:33.032Z,100.00
2023-03-25T22:27:18.572Z,100.00
2023-03-25T22:30:06.489Z,100.00
2023-03-25T22:32:51.806Z,100.00
2023-03-25T22:35:37.155Z,100.00
2023-03-25T22:38:22.717Z,100.00
2023-03-25T22:41:08.540Z,100.00
2023-03-25T22:43:53.921Z,100.00
2023-03-25T22:46:39.163Z,100.00
2023-03-25T22:49:24.540Z,100.00
2023-03-25T22:52:09.827Z,100.00
2023-03-25T22:54:55.296Z,100.00
2023-03-25T22:57:41.073Z,100.00
2023-03-25T23:00:27.761Z,100.00
2023-03-25T23:03:13.227Z,100.00
2023-03-25T23:06:03.106Z,100.00
2023-03-25T23:08:49.433Z,100.00
2023-03-25T23:11:36.359Z,100.00
2023-03-25T23:14:21.584Z,100.00
2023-03-25T23:17:07.817Z,100.00
2023-03-25T23:19:54.062Z,100.00
2023-03-25T23:22:39.579Z,100.00
2023-03-25T23:25:24.388Z,100.00
2023-03-25T23:28:09.871Z,100.00
2023-03-25T23:30:55.841Z,100.00
2023-03-25T23:33:41.314Z,100.00
2023-03-25T23:36:28.415Z,100.00
2023-03-25T23:39:16.798Z,100.00
2023-03-25T23:42:02.083Z,100.00
2023-03-25T23:44:47.309Z,100.00
2023-03-25T23:47:32.526Z,100.00
2023-03-25T23:50:18.085Z,100.00
2023-03-25T23:53:03.880Z,100.00
2023-03-25T23:55:52.496Z,100.00
2023-03-25T23:58:38.624Z,100.00
